Time;durP1;ratioP1;P1;durP2;ratioP2;P2;SDS_P1;SDS_P2;PMS_P1;PMS_P2;Temp;Humidity;BMP_temperature;BMP_pressure;BME280_temperature;BME280_humidity;BME280_pressure;Samples;Min_cycle;Max_cycle;Signal;HPM_P1;HPM_P2
2023/03/18 00:01:15;;;;;;;12.82;11.45;;;22.00;67.90;;;;;;6061935;28;89058;-72
2023/03/18 00:04:17;;;;;;;12.57;11.32;;;22.00;68.10;;;;;;6066925;28;88015;-72
2023/03/18 00:07:19;;;;;;;12.70;11.40;;;22.00;68.20;;;;;;6076455;28;88012;-72
2023/03/18 00:10:21;;;;;;;12.63;11.32;;;22.00;68.30;;;;;;6080885;28;89001;-72
2023/03/18 00:13:26;;;;;;;13.57;12.20;;;22.00;68.40;;;;;;6062695;28;88266;-72
2023/03/18 00:16:28;;;;;;;13.57;12.18;;;22.00;68.60;;;;;;6070796;28;89148;-72
2023/03/18 00:19:32;;;;;;;13.45;11.98;;;22.00;68.70;;;;;;6072074;28;89098;-73
2023/03/18 00:22:34;;;;;;;14.02;12.52;;;22.00;68.70;;;;;;6060259;28;90023;-72
2023/03/18 00:25:37;;;;;;;13.43;12.13;;;22.00;68.80;;;;;;6074316;28;89392;-73
2023/03/18 00:28:42;;;;;;;14.27;12.85;;;22.00;68.90;;;;;;6066102;28;89376;-72
2023/03/18 00:31:44;;;;;;;13.80;12.40;;;22.00;68.90;;;;;;6059015;28;89046;-71
2023/03/18 00:34:46;;;;;;;13.55;12.15;;;22.00;68.90;;;;;;6066334;28;89000;-72
2023/03/18 00:37:48;;;;;;;14.23;12.70;;;22.00;68.90;;;;;;6061059;28;87957;-72
2023/03/18 00:41:00;;;;;;;14.70;13.20;;;21.90;68.90;;;;;;6053031;28;87969;-71
2023/03/18 00:44:05;;;;;;;14.63;13.13;;;22.00;68.90;;;;;;6065920;28;87197;-72
2023/03/18 00:47:07;;;;;;;14.40;12.90;;;22.00;69.00;;;;;;6067249;28;88030;-72
2023/03/18 00:50:11;;;;;;;14.30;12.90;;;22.00;69.00;;;;;;6072907;28;90284;-72
2023/03/18 00:53:14;;;;;;;14.55;13.00;;;22.00;69.00;;;;;;6079624;28;90285;-72
2023/03/18 00:56:17;;;;;;;14.52;12.50;;;22.00;69.10;;;;;;6064237;28;89043;-71
2023/03/18 00:59:21;;;;;;;14.55;13.10;;;21.90;69.10;;;;;;6063051;28;89390;-72
2023/03/18 01:02:23;;;;;;;14.02;12.63;;;21.90;69.10;;;;;;6068096;28;89059;-69
2023/03/18 01:05:25;;;;;;;14.73;13.23;;;21.90;69.10;;;;;;6067099;28;89258;-72
2023/03/18 01:08:28;;;;;;;14.90;13.40;;;21.90;69.10;;;;;;6071072;28;89150;-71
2023/03/18 01:11:30;;;;;;;13.88;12.48;;;21.90;69.10;;;;;;6071256;28;89098;-72
2023/03/18 01:14:35;;;;;;;13.63;12.32;;;21.90;69.20;;;;;;6069928;28;88462;-71
2023/03/18 01:17:37;;;;;;;14.68;13.07;;;21.90;69.10;;;;;;6070864;28;89215;-71
2023/03/18 01:20:39;;;;;;;13.75;12.35;;;21.90;69.10;;;;;;6068088;28;89458;-72
2023/03/18 01:23:41;;;;;;;16.98;13.63;;;21.90;69.10;;;;;;6058294;28;90476;-71
2023/03/18 01:26:43;;;;;;;14.52;13.02;;;21.90;69.10;;;;;;6061250;28;89175;-72
2023/03/18 01:29:47;;;;;;;13.82;12.43;;;21.90;69.10;;;;;;6066183;28;89123;-70
2023/03/18 01:32:50;;;;;;;13.38;11.98;;;21.90;69.10;;;;;;6062261;28;89194;-71
2023/03/18 01:35:55;;;;;;;13.13;11.82;;;21.90;69.10;;;;;;6060781;28;89093;-71
2023/03/18 01:38:57;;;;;;;13.57;12.27;;;21.90;69.10;;;;;;6064591;28;89190;-71
2023/03/18 01:41:59;;;;;;;14.00;12.57;;;21.80;69.10;;;;;;6067267;28;89082;-71
2023/03/18 01:45:18;;;;;;;13.25;11.95;;;21.80;69.10;;;;;;6060253;28;87107;-71
2023/03/18 01:48:22;;;;;;;13.93;12.45;;;21.80;69.10;;;;;;6065737;28;87126;-71
2023/03/18 01:51:28;;;;;;;13.68;12.27;;;21.80;69.10;;;;;;6063256;28;89134;-72
2023/03/18 01:54:33;;;;;;;13.43;12.05;;;21.80;69.10;;;;;;6069080;28;90132;-71
2023/03/18 01:57:36;;;;;;;13.52;12.02;;;21.80;69.00;;;;;;6066424;28;88764;-71
2023/03/18 02:00:43;;;;;;;13.50;12.20;;;21.90;69.00;;;;;;6051353;28;88945;-71
2023/03/18 02:03:47;;;;;;;13.30;12.00;;;21.80;68.90;;;;;;6057909;28;89079;-71
2023/03/18 02:06:49;;;;;;;12.93;11.63;;;21.90;68.90;;;;;;6065491;28;89633;-71
2023/03/18 02:09:53;;;;;;;15.68;13.10;;;21.90;68.90;;;;;;6073974;28;89417;-71
2023/03/18 02:12:59;;;;;;;12.75;11.45;;;21.80;68.90;;;;;;6062176;28;87965;-71
2023/03/18 02:16:07;;;;;;;12.18;10.98;;;21.80;68.90;;;;;;6072210;28;88557;-71
2023/03/18 02:19:30;;;;;;;12.45;11.25;;;21.80;68.90;;;;;;6072282;28;89098;-72
2023/03/18 02:22:37;;;;;;;12.00;10.80;;;21.80;68.90;;;;;;6070680;28;89453;-71
2023/03/18 02:25:46;;;;;;;11.63;10.50;;;21.80;68.90;;;;;;6059325;28;90376;-71
2023/03/18 02:28:52;;;;;;;12.32;11.07;;;21.80;68.90;;;;;;6060932;28;89160;-71
2023/03/18 02:31:56;;;;;;;11.70;10.50;;;21.80;68.90;;;;;;6063740;28;89099;-71
2023/03/18 02:35:01;;;;;;;11.50;10.30;;;21.80;68.90;;;;;;6068817;28;87982;-71
2023/03/18 02:38:03;;;;;;;11.60;10.50;;;21.80;68.80;;;;;;6069866;28;89157;-71
2023/03/18 02:41:06;;;;;;;10.77;9.77;;;21.80;68.80;;;;;;6067826;28;89186;-72
2023/03/18 02:44:10;;;;;;;11.15;10.05;;;21.80;68.80;;;;;;6064707;28;89079;-72
2023/03/18 02:47:17;;;;;;;11.73;10.52;;;21.80;68.80;;;;;;6064918;28;88718;-71
2023/03/18 02:50:19;;;;;;;11.25;10.13;;;21.80;68.70;;;;;;6079382;28;89097;-72
2023/03/18 02:53:21;;;;;;;11.05;9.95;;;21.70;68.70;;;;;;6063234;28;87941;-72
2023/03/18 02:56:23;;;;;;;11.85;10.35;;;21.80;68.80;;;;;;6059740;28;90028;-72
2023/03/18 02:59:27;;;;;;;11.00;9.90;;;21.70;68.80;;;;;;6061597;28;89671;-72
2023/03/18 03:02:29;;;;;;;10.50;9.50;;;21.70;68.60;;;;;;6060830;28;89022;-71
2023/03/18 03:05:33;;;;;;;11.02;9.93;;;21.70;68.60;;;;;;6065444;28;88625;-72
2023/03/18 03:08:36;;;;;;;10.27;9.25;;;21.70;68.60;;;;;;6061023;28;89148;-72
2023/03/18 03:11:38;;;;;;;10.25;9.25;;;21.80;68.80;;;;;;6066382;28;89143;-72
2023/03/18 03:14:41;;;;;;;10.13;9.07;;;21.70;68.60;;;;;;6081498;28;89164;-72
2023/03/18 03:17:43;;;;;;;10.50;9.50;;;21.70;68.50;;;;;;6062505;28;88720;-72
2023/03/18 03:20:45;;;;;;;10.18;9.18;;;21.70;68.50;;;;;;6064352;28;88010;-72
2023/03/18 03:23:48;;;;;;;9.52;8.63;;;21.70;68.50;;;;;;6078985;28;89380;-72
2023/03/18 03:26:50;;;;;;;9.90;8.90;;;21.70;68.50;;;;;;6060154;28;90075;-72
2023/03/18 03:29:54;;;;;;;10.40;9.30;;;21.70;68.60;;;;;;6070807;28;89214;-72
2023/03/18 03:32:56;;;;;;;9.95;8.95;;;21.70;68.50;;;;;;6060894;28;89064;-72
2023/03/18 03:35:59;;;;;;;9.40;8.50;;;21.70;68.40;;;;;;6073343;28;87920;-73
2023/03/18 03:39:01;;;;;;;10.05;9.07;;;21.70;68.50;;;;;;6061463;28;88189;-72
2023/03/18 03:42:03;;;;;;;9.25;8.35;;;21.70;68.50;;;;;;6067389;28;89138;-72
2023/03/18 03:45:07;;;;;;;9.15;8.27;;;21.70;69.40;;;;;;6064306;28;89093;-72
2023/03/18 03:48:10;;;;;;;9.32;8.30;;;21.70;68.40;;;;;;6061448;28;88366;-72
2023/03/18 03:51:12;;;;;;;9.70;8.70;;;21.60;68.40;;;;;;6060921;28;89101;-72
2023/03/18 03:54:14;;;;;;;9.00;8.10;;;21.70;68.40;;;;;;6064873;28;90178;-71
2023/03/18 03:57:16;;;;;;;9.13;8.18;;;21.70;68.40;;;;;;6066590;28;90339;-72
2023/03/18 04:00:22;;;;;;;9.07;8.18;;;21.60;68.30;;;;;;6064692;28;89146;-72
2023/03/18 04:03:24;;;;;;;8.63;7.82;;;21.60;68.30;;;;;;6060160;28;89144;-72
2023/03/18 04:06:26;;;;;;;9.88;8.00;;;21.60;68.30;;;;;;6075384;28;87881;-72
2023/03/18 04:09:29;;;;;;;7.80;7.10;;;21.50;68.30;;;;;;6064817;28;89023;-72
2023/03/18 04:12:31;;;;;;;8.40;7.60;;;21.60;68.30;;;;;;6064934;28;89535;-72
2023/03/18 04:15:35;;;;;;;8.13;7.32;;;21.60;68.40;;;;;;6069622;28;89067;-71
2023/03/18 04:18:37;;;;;;;8.27;7.47;;;21.60;68.40;;;;;;6083894;28;88427;-72
2023/03/18 04:21:39;;;;;;;8.40;7.55;;;21.60;68.20;;;;;;6065494;28;89106;-73
2023/03/18 04:24:41;;;;;;;7.97;7.18;;;21.60;68.20;;;;;;6068497;28;89212;-71
2023/03/18 04:27:43;;;;;;;8.30;7.32;;;21.60;68.20;;;;;;6071688;28;88860;-72
2023/03/18 04:30:48;;;;;;;7.68;6.88;;;21.60;68.10;;;;;;6064760;28;88997;-71
2023/03/18 04:33:50;;;;;;;7.88;7.07;;;21.60;68.10;;;;;;6072857;28;88011;-72
2023/03/18 04:36:52;;;;;;;8.57;7.07;;;21.60;68.10;;;;;;6064085;28;90535;-70
2023/03/18 04:39:54;;;;;;;7.63;6.93;;;21.60;67.90;;;;;;6087938;28;89436;-71
2023/03/18 04:42:56;;;;;;;7.50;6.80;;;21.60;67.80;;;;;;6079512;28;89105;-71
2023/03/18 04:46:00;;;;;;;7.90;7.10;;;21.60;67.80;;;;;;6071330;28;89331;-71
2023/03/18 04:49:02;;;;;;;7.60;6.88;;;21.60;67.70;;;;;;6073805;28;87582;-71
2023/03/18 04:52:04;;;;;;;7.25;6.60;;;21.60;67.70;;;;;;6075066;28;89239;-71
2023/03/18 04:55:08;;;;;;;7.35;6.65;;;21.60;67.70;;;;;;6071694;28;89074;-71
2023/03/18 04:58:11;;;;;;;6.97;6.28;;;21.60;67.60;;;;;;6065038;28;89987;-71
2023/03/18 05:01:14;;;;;;;7.30;6.38;;;21.60;67.60;;;;;;6068054;28;88116;-70
2023/03/18 05:04:16;;;;;;;6.32;5.72;;;21.70;67.60;;;;;;6071896;28;87994;-71
2023/03/18 05:07:19;;;;;;;8.07;6.82;;;21.60;67.50;;;;;;6070316;28;89582;-71
2023/03/18 05:10:21;;;;;;;6.50;5.90;;;21.60;67.50;;;;;;6069572;28;89267;-71
2023/03/18 05:13:23;;;;;;;6.55;5.93;;;21.70;67.60;;;;;;6048477;28;89148;-70
2023/03/18 05:16:26;;;;;;;6.65;5.95;;;21.70;67.50;;;;;;6065156;28;89177;-71
2023/03/18 05:19:28;;;;;;;6.82;6.20;;;21.70;67.50;;;;;;6079495;28;88633;-72
2023/03/18 05:22:30;;;;;;;6.45;5.85;;;21.70;67.40;;;;;;6073339;28;89449;-71
2023/03/18 05:25:33;;;;;;;6.78;6.00;;;21.70;67.40;;;;;;6066424;28;89250;-72
2023/03/18 05:28:35;;;;;;;6.63;5.95;;;21.70;67.40;;;;;;6062054;28;90392;-72
2023/03/18 05:31:38;;;;;;;6.32;5.72;;;21.70;67.30;;;;;;6061183;28;89090;-71
2023/03/18 05:34:41;;;;;;;6.25;5.65;;;21.70;67.30;;;;;;6063049;28;89299;-71
2023/03/18 05:37:43;;;;;;;5.93;5.43;;;21.70;67.20;;;;;;6073521;28;87996;-71
2023/03/18 05:40:45;;;;;;;6.07;5.50;;;21.70;67.20;;;;;;6080556;28;89041;-71
2023/03/18 05:43:47;;;;;;;5.95;5.45;;;21.70;67.20;;;;;;6082931;28;88289;-72
2023/03/18 05:46:52;;;;;;;5.60;5.10;;;21.70;67.30;;;;;;6070681;28;89108;-71
2023/03/18 05:49:54;;;;;;;5.63;5.10;;;21.70;67.40;;;;;;6075346;28;88360;-71
2023/03/18 05:52:56;;;;;;;5.70;5.10;;;21.70;67.30;;;;;;6072743;28;89246;-71
2023/03/18 05:55:58;;;;;;;5.70;5.20;;;21.70;67.30;;;;;;6060839;28;89447;-71
2023/03/18 05:59:00;;;;;;;5.82;5.18;;;21.70;67.30;;;;;;6061291;28;90297;-71
2023/03/18 06:02:04;;;;;;;6.55;5.85;;;21.70;67.30;;;;;;6073035;28;88439;-71
2023/03/18 06:05:07;;;;;;;5.45;4.95;;;21.70;67.30;;;;;;6062404;28;89085;-71
2023/03/18 06:08:09;;;;;;;5.68;5.07;;;21.70;67.40;;;;;;6062058;28;89414;-71
2023/03/18 06:11:11;;;;;;;5.55;4.97;;;21.70;67.40;;;;;;6069705;28;89194;-70
2023/03/18 06:14:15;;;;;;;5.57;5.07;;;21.70;67.40;;;;;;6081666;28;89141;-70
2023/03/18 06:17:18;;;;;;;5.22;4.72;;;21.60;67.30;;;;;;6072366;28;89177;-71
2023/03/18 06:20:20;;;;;;;5.57;5.03;;;21.70;67.40;;;;;;6072767;28;89445;-71
2023/03/18 06:23:23;;;;;;;5.55;5.05;;;21.70;67.40;;;;;;6068293;28;89562;-71
2023/03/18 06:26:25;;;;;;;5.25;4.75;;;21.70;67.40;;;;;;6060921;28;89115;-71
2023/03/18 06:29:27;;;;;;;5.38;4.88;;;21.70;67.40;;;;;;6059471;28;90035;-70
2023/03/18 06:32:31;;;;;;;5.38;4.88;;;21.70;67.30;;;;;;6072405;28;88003;-71
2023/03/18 06:35:34;;;;;;;5.28;4.30;;;21.70;67.30;;;;;;6067280;28;89253;-71
2023/03/18 06:38:36;;;;;;;4.82;4.43;;;21.70;67.20;;;;;;6072199;28;89198;-71
2023/03/18 06:41:38;;;;;;;4.85;4.38;;;21.70;67.20;;;;;;6064835;28;89090;-71
2023/03/18 06:44:43;;;;;;;4.90;4.43;;;21.80;67.20;;;;;;6062853;28;89202;-71
2023/03/18 06:47:46;;;;;;;4.60;4.20;;;21.80;67.10;;;;;;6066384;28;88415;-71
2023/03/18 06:50:48;;;;;;;4.93;4.43;;;21.80;67.10;;;;;;6061521;28;88495;-70
2023/03/18 06:53:51;;;;;;;4.97;4.47;;;21.80;67.10;;;;;;6063481;28;89049;-71
2023/03/18 06:56:53;;;;;;;4.70;4.30;;;21.80;67.10;;;;;;6061185;28;89099;-70
2023/03/18 06:59:56;;;;;;;4.97;4.47;;;21.80;67.10;;;;;;6068613;28;89956;-71
2023/03/18 07:03:00;;;;;;;4.70;4.30;;;21.90;67.10;;;;;;6072834;28;89238;-69
2023/03/18 07:06:03;;;;;;;4.80;4.28;;;21.90;67.10;;;;;;6071447;28;89114;-70
2023/03/18 07:09:05;;;;;;;4.72;4.22;;;21.90;67.00;;;;;;6065612;28;88968;-72
2023/03/18 07:12:07;;;;;;;4.78;4.38;;;21.90;67.00;;;;;;6073352;28;89462;-71
2023/03/18 07:15:11;;;;;;;4.45;4.05;;;21.90;67.00;;;;;;6067399;28;88334;-68
2023/03/18 07:18:15;;;;;;;4.68;4.28;;;21.90;67.00;;;;;;6067599;28;89064;-69
2023/03/18 07:21:18;;;;;;;4.40;4.00;;;22.00;67.10;;;;;;6064699;28;87129;-69
2023/03/18 07:24:21;;;;;;;4.80;4.40;;;22.00;67.20;;;;;;6064208;28;89072;-69
2023/03/18 07:27:23;;;;;;;6.00;4.35;;;22.00;67.20;;;;;;6067293;28;89139;-69
2023/03/18 07:30:25;;;;;;;4.43;4.03;;;22.00;67.20;;;;;;6072717;28;90024;-70
2023/03/18 07:33:29;;;;;;;4.90;4.07;;;22.00;67.20;;;;;;6077521;28;88023;-74
2023/03/18 07:36:31;;;;;;;4.57;4.10;;;22.00;67.40;;;;;;6082101;28;87900;-69
2023/03/18 07:39:33;;;;;;;4.68;4.18;;;22.00;67.80;;;;;;6086080;28;89066;-69
2023/03/18 07:42:35;;;;;;;4.38;3.88;;;22.10;67.80;;;;;;6062503;28;89400;-68
2023/03/18 07:45:38;;;;;;;3.78;3.47;;;22.10;67.80;;;;;;6064270;28;89155;-68
2023/03/18 07:48:41;;;;;;;4.50;4.00;;;22.10;67.90;;;;;;6068087;28;89280;-69
2023/03/18 07:51:43;;;;;;;4.22;3.83;;;22.10;68.10;;;;;;6061988;28;88330;-67
2023/03/18 07:54:45;;;;;;;4.95;3.85;;;22.20;68.30;;;;;;6074837;28;89026;-70
2023/03/18 07:57:47;;;;;;;4.40;4.00;;;22.20;68.20;;;;;;6081915;28;89114;-69
2023/03/18 08:00:50;;;;;;;4.88;4.10;;;22.20;69.10;;;;;;6081577;28;90123;-69
2023/03/18 08:03:53;;;;;;;4.28;3.88;;;22.20;68.20;;;;;;6082200;28;89155;-70
2023/03/18 08:06:56;;;;;;;4.38;3.97;;;22.30;68.30;;;;;;6073041;28;88874;-70
2023/03/18 08:09:59;;;;;;;4.15;3.80;;;22.30;68.30;;;;;;6082434;28;87879;-70
2023/03/18 08:13:01;;;;;;;4.68;4.10;;;22.30;68.20;;;;;;6078364;28;87958;-69
2023/03/18 08:16:03;;;;;;;6.00;4.63;;;22.30;68.20;;;;;;6063214;28;90007;-70
2023/03/18 08:19:07;;;;;;;4.03;3.65;;;22.30;68.10;;;;;;6073271;28;89095;-71
2023/03/18 08:22:10;;;;;;;4.63;4.03;;;22.30;68.10;;;;;;6072485;28;88415;-69
2023/03/18 08:25:12;;;;;;;4.43;4.00;;;22.30;68.00;;;;;;6073554;28;88856;-69
2023/03/18 08:28:14;;;;;;;4.72;3.90;;;22.30;67.90;;;;;;6071152;28;89142;-69
2023/03/18 08:31:16;;;;;;;4.93;3.72;;;22.30;67.90;;;;;;6065522;28;89972;-69
2023/03/18 08:34:20;;;;;;;4.22;3.83;;;22.30;67.90;;;;;;6069926;28;89125;-69
2023/03/18 08:37:22;;;;;;;3.92;3.53;;;22.30;67.90;;;;;;6071283;28;89141;-68
2023/03/18 08:40:24;;;;;;;3.97;3.60;;;22.30;67.90;;;;;;6061617;28;89088;-69
2023/03/18 08:43:27;;;;;;;4.30;3.88;;;22.30;67.90;;;;;;6066324;28;88998;-70
2023/03/18 08:46:29;;;;;;;4.28;3.88;;;22.30;68.30;;;;;;6065422;28;88007;-69
2023/03/18 08:49:33;;;;;;;6.05;4.13;;;22.30;67.70;;;;;;6063473;28;89125;-70
2023/03/18 08:52:36;;;;;;;6.32;4.15;;;22.30;67.70;;;;;;6071125;28;88296;-69
2023/03/18 08:55:39;;;;;;;5.60;4.25;;;22.30;67.50;;;;;;6063524;28;89267;-69
2023/03/18 08:58:42;;;;;;;5.20;3.85;;;22.40;67.20;;;;;;6063572;28;89116;-69
2023/03/18 09:01:44;;;;;;;6.10;3.85;;;22.40;66.70;;;;;;6074881;28;90092;-69
2023/03/18 09:04:48;;;;;;;4.50;4.00;;;22.40;66.70;;;;;;6072568;28;87867;-69
2023/03/18 09:07:51;;;;;;;6.95;4.22;;;22.40;66.60;;;;;;6063676;28;89103;-69
2023/03/18 09:10:53;;;;;;;6.75;4.07;;;22.40;66.60;;;;;;6069380;28;89604;-69
2023/03/18 09:13:55;;;;;;;8.35;4.45;;;22.40;66.70;;;;;;6081829;28;88977;-69
2023/03/18 09:16:58;;;;;;;5.70;4.10;;;22.40;66.70;;;;;;6081770;28;89424;-70
2023/03/18 09:20:01;;;;;;;7.22;6.38;;;22.40;66.50;;;;;;6072244;28;88283;-70
2023/03/18 09:23:04;;;;;;;7.68;6.90;;;22.40;59.60;;;;;;6071724;28;88466;-69
2023/03/18 09:26:06;;;;;;;7.88;7.07;;;22.20;57.50;;;;;;6060576;28;89196;-70
2023/03/18 09:29:08;;;;;;;8.10;6.82;;;22.20;56.10;;;;;;6076180;28;89096;-69
2023/03/18 09:32:10;;;;;;;7.53;6.72;;;22.10;56.50;;;;;;6080932;28;90490;-69
2023/03/18 09:35:15;;;;;;;7.40;6.70;;;22.00;56.00;;;;;;6056221;28;89277;-69
2023/03/18 09:38:19;;;;;;;7.50;6.75;;;22.00;55.80;;;;;;6068938;28;89064;-69
2023/03/18 09:41:34;;;;;;;9.75;7.97;;;21.90;55.60;;;;;;6060797;28;89301;-69
2023/03/18 09:44:37;;;;;;;8.95;7.88;;;21.80;54.70;;;;;;6065056;28;88416;-69
2023/03/18 09:48:03;;;;;;;8.90;7.82;;;21.70;54.90;;;;;;6064158;28;89126;-69
2023/03/18 09:51:16;;;;;;;9.27;6.70;;;21.60;55.20;;;;;;6032469;28;87727;-68
2023/03/18 09:54:26;;;;;;;6.93;6.20;;;21.60;55.50;;;;;;6059001;28;88464;-68
2023/03/18 09:57:32;;;;;;;6.25;5.65;;;21.50;56.30;;;;;;6071688;28;89227;-68
2023/03/18 10:00:37;;;;;;;7.43;5.50;;;21.60;56.90;;;;;;6070816;28;89366;-68
2023/03/18 10:03:45;;;;;;;5.75;5.15;;;21.60;57.30;;;;;;6065086;28;90160;-68
2023/03/18 10:06:50;;;;;;;5.43;4.93;;;21.60;57.70;;;;;;6063702;28;89181;-68
2023/03/18 10:09:55;;;;;;;5.47;4.68;;;21.70;58.10;;;;;;6060817;28;89124;-67
2023/03/18 10:13:06;;;;;;;6.22;4.60;;;21.70;58.40;;;;;;6067852;28;89091;-67
2023/03/18 10:16:16;;;;;;;4.78;4.15;;;21.80;58.80;;;;;;6063158;28;89073;-67
2023/03/18 10:19:19;;;;;;;5.85;4.47;;;21.80;59.10;;;;;;6079136;28;89089;-68
2023/03/18 10:22:43;;;;;;;4.97;4.30;;;21.90;59.30;;;;;;6072522;28;89042;-68
2023/03/18 10:25:52;;;;;;;6.45;4.30;;;21.90;59.60;;;;;;6065472;28;88398;-69
2023/03/18 10:29:13;;;;;;;9.40;3.92;;;21.90;59.90;;;;;;6060879;28;89107;-68
2023/03/18 10:32:28;;;;;;;4.80;3.97;;;22.00;60.10;;;;;;6071115;28;88193;-68
2023/03/18 10:35:37;;;;;;;4.20;3.80;;;21.90;60.30;;;;;;6062271;28;90245;-68
2023/03/18 10:38:44;;;;;;;5.40;4.20;;;22.00;60.60;;;;;;6066770;28;89287;-67
2023/03/18 10:41:49;;;;;;;8.23;4.25;;;22.00;60.80;;;;;;6065611;28;89439;-67
2023/03/18 10:44:52;;;;;;;7.50;4.25;;;22.00;61.10;;;;;;6070793;28;89192;-68
2023/03/18 10:48:00;;;;;;;6.82;3.85;;;22.00;61.30;;;;;;6065138;28;89668;-67
2023/03/18 10:51:12;;;;;;;6.20;4.00;;;22.00;61.50;;;;;;6060763;28;89150;-68
2023/03/18 10:54:23;;;;;;;7.60;4.70;;;22.10;61.60;;;;;;6067356;28;88043;-68
2023/03/18 10:57:25;;;;;;;4.85;3.97;;;22.00;61.80;;;;;;6058621;28;89216;-70
2023/03/18 11:00:31;;;;;;;7.13;4.18;;;22.10;62.10;;;;;;6065991;28;89543;-68
2023/03/18 11:03:37;;;;;;;6.80;4.28;;;22.10;62.30;;;;;;6060434;28;88228;-69
2023/03/18 11:06:44;;;;;;;5.15;3.97;;;22.10;62.50;;;;;;6063544;28;90492;-68
2023/03/18 11:09:48;;;;;;;5.40;4.20;;;22.10;62.70;;;;;;6069663;28;89179;-68
2023/03/18 11:12:50;;;;;;;4.95;3.90;;;22.10;62.80;;;;;;6071228;28;89137;-68
2023/03/18 11:15:55;;;;;;;5.63;4.00;;;22.10;63.00;;;;;;6082656;28;88007;-68
2023/03/18 11:18:58;;;;;;;5.55;3.75;;;22.10;63.20;;;;;;6061081;28;89084;-68
2023/03/18 11:22:12;;;;;;;4.57;3.63;;;22.00;63.20;;;;;;6071086;28;89131;-68
2023/03/18 11:25:17;;;;;;;4.40;3.60;;;22.00;63.30;;;;;;6069855;28;91342;-68
2023/03/18 11:28:21;;;;;;;3.72;3.20;;;22.00;63.40;;;;;;6056552;28;88565;-68
2023/03/18 11:31:24;;;;;;;4.30;3.70;;;22.00;63.50;;;;;;6062306;28;89146;-68
2023/03/18 11:34:27;;;;;;;6.65;3.78;;;22.00;63.70;;;;;;6064378;28;89165;-68
2023/03/18 11:37:34;;;;;;;4.43;3.63;;;22.00;63.70;;;;;;6078462;28;90018;-68
2023/03/18 11:40:40;;;;;;;4.10;3.70;;;22.00;63.80;;;;;;6072503;28;89182;-68
2023/03/18 11:43:55;;;;;;;4.00;3.60;;;22.00;63.90;;;;;;6053405;28;89142;-68
2023/03/18 11:47:05;;;;;;;6.10;3.80;;;22.00;64.00;;;;;;6063983;28;89256;-68
2023/03/18 11:50:18;;;;;;;4.80;3.70;;;22.00;64.10;;;;;;6050735;28;89115;-68
2023/03/18 11:53:30;;;;;;;3.90;3.50;;;21.90;64.20;;;;;;6060768;28;89166;-68
2023/03/18 11:56:39;;;;;;;3.88;3.47;;;22.00;64.30;;;;;;6063826;28;89255;-69
2023/03/18 11:59:58;;;;;;;4.03;3.50;;;22.00;64.40;;;;;;6060088;28;88336;-68
2023/03/18 12:03:21;;;;;;;3.75;3.42;;;22.00;64.50;;;;;;6059216;28;89081;-68
2023/03/18 12:06:25;;;;;;;4.55;3.10;;;22.00;64.50;;;;;;6028770;28;89123;-68
2023/03/18 12:09:32;;;;;;;3.75;3.25;;;21.90;64.70;;;;;;6066303;28;88911;-68
2023/03/18 12:12:52;;;;;;;4.82;3.67;;;21.90;64.70;;;;;;6065316;28;88034;-68
2023/03/18 12:16:02;;;;;;;4.25;3.55;;;22.00;64.80;;;;;;6070214;28;87938;-68
2023/03/18 12:19:30;;;;;;;4.38;3.45;;;21.90;64.90;;;;;;6058999;28;89173;-69
2023/03/18 12:22:55;;;;;;;4.13;3.50;;;21.90;64.90;;;;;;6061527;28;89406;-68
2023/03/18 12:26:03;;;;;;;3.88;3.40;;;21.90;65.00;;;;;;6066451;28;88261;-69
2023/03/18 12:29:32;;;;;;;4.88;3.65;;;21.90;65.00;;;;;;6069190;28;89069;-68
2023/03/18 12:32:40;;;;;;;4.00;3.50;;;21.90;65.20;;;;;;6068357;28;88478;-69
2023/03/18 12:35:52;;;;;;;4.07;3.67;;;21.90;65.20;;;;;;6067329;28;89213;-68
2023/03/18 12:39:26;;;;;;;3.70;3.40;;;21.90;65.30;;;;;;6076191;28;89674;-68
2023/03/18 12:42:41;;;;;;;4.25;3.30;;;21.90;65.40;;;;;;6070080;28;90063;-68
2023/03/18 12:45:48;;;;;;;3.47;3.05;;;21.90;65.40;;;;;;6065935;28;88277;-69
2023/03/18 12:48:55;;;;;;;3.67;3.28;;;21.90;65.40;;;;;;6064882;28;88054;-68
2023/03/18 12:52:05;;;;;;;3.67;3.30;;;21.90;65.50;;;;;;6062806;28;89184;-68
2023/03/18 12:55:14;;;;;;;3.75;3.45;;;21.90;65.50;;;;;;6073804;28;89218;-68
2023/03/18 12:58:19;;;;;;;4.60;3.10;;;21.90;65.60;;;;;;6067730;28;88864;-69
2023/03/18 13:01:27;;;;;;;3.47;3.17;;;21.90;65.70;;;;;;6070240;28;89121;-68
2023/03/18 13:04:35;;;;;;;4.60;3.30;;;21.90;65.70;;;;;;6062996;28;88339;-68
2023/03/18 13:07:45;;;;;;;4.65;3.50;;;21.90;65.70;;;;;;6081845;28;89125;-68
2023/03/18 13:10:54;;;;;;;4.00;3.40;;;21.90;65.80;;;;;;6055709;28;89114;-68
2023/03/18 13:14:01;;;;;;;3.67;3.30;;;21.90;65.90;;;;;;6061426;28;90454;-68
2023/03/18 13:17:06;;;;;;;4.82;3.38;;;21.90;65.90;;;;;;6062690;28;87942;-72
2023/03/18 13:20:14;;;;;;;4.00;3.60;;;21.90;66.10;;;;;;6065188;28;89149;-70
2023/03/18 13:23:30;;;;;;;3.65;3.35;;;21.90;67.80;;;;;;6065139;28;89368;-69
2023/03/18 13:26:49;;;;;;;6.40;3.20;;;21.90;68.30;;;;;;6067032;28;89107;-69
2023/03/18 13:30:04;;;;;;;4.97;3.10;;;21.90;67.90;;;;;;6056400;28;89166;-68
2023/03/18 13:33:25;;;;;;;7.22;3.70;;;21.90;68.30;;;;;;6056607;28;88200;-69
2023/03/18 13:36:59;;;;;;;4.78;3.58;;;21.90;68.80;;;;;;6065314;28;88380;-69
2023/03/18 13:40:21;;;;;;;4.85;3.60;;;21.80;68.90;;;;;;6064974;28;89095;-69
2023/03/18 13:43:25;;;;;;;5.47;3.60;;;21.80;69.10;;;;;;6073672;28;88723;-69
2023/03/18 13:46:30;;;;;;;5.40;3.63;;;21.80;69.40;;;;;;6068581;28;90063;-69
2023/03/18 13:49:37;;;;;;;4.03;3.42;;;21.80;70.00;;;;;;6068065;28;89624;-69
2023/03/18 13:52:42;;;;;;;5.00;3.33;;;21.80;71.00;;;;;;6062161;28;89106;-69
2023/03/18 13:55:49;;;;;;;3.72;3.42;;;21.80;71.70;;;;;;6069633;28;89112;-70
2023/03/18 13:58:52;;;;;;;4.53;3.47;;;21.80;71.90;;;;;;6071513;28;89145;-68
2023/03/18 14:01:58;;;;;;;4.25;3.30;;;21.80;72.90;;;;;;6063257;28;87660;-68
2023/03/18 14:05:03;;;;;;;4.03;3.40;;;21.80;73.10;;;;;;6060984;28;88908;-69
2023/03/18 14:08:27;;;;;;;4.38;3.70;;;21.90;73.50;;;;;;6074819;28;88435;-69
2023/03/18 14:11:52;;;;;;;3.70;3.40;;;21.80;73.70;;;;;;6053959;28;88026;-69
2023/03/18 14:15:01;;;;;;;3.65;3.10;;;21.90;73.70;;;;;;6061491;28;89422;-69
2023/03/18 14:18:04;;;;;;;4.05;3.65;;;21.80;73.60;;;;;;6059698;28;89981;-69
2023/03/18 14:21:22;;;;;;;5.18;3.33;;;21.90;73.70;;;;;;6062322;28;88993;-70
2023/03/18 14:24:26;;;;;;;9.15;7.53;;;21.80;74.40;;;;;;6069673;28;89040;-69
2023/03/18 14:27:29;;;;;;;14.70;12.10;;;21.80;68.80;;;;;;6076762;28;88863;-70
2023/03/18 14:30:45;;;;;;;14.30;11.00;;;21.80;67.70;;;;;;6077466;28;89263;-69
2023/03/18 14:33:59;;;;;;;14.95;10.25;;;21.70;65.60;;;;;;6062894;28;88849;-70
2023/03/18 14:37:18;;;;;;;10.80;9.20;;;21.60;65.80;;;;;;6066273;28;89199;-69
2023/03/18 14:40:21;;;;;;;11.35;10.10;;;21.50;65.50;;;;;;6061355;28;88768;-69
2023/03/18 14:43:28;;;;;;;10.38;8.98;;;21.50;64.40;;;;;;6062619;28;88997;-69
2023/03/18 14:46:36;;;;;;;11.38;9.13;;;21.50;65.00;;;;;;6060300;28;89210;-69
2023/03/18 14:49:44;;;;;;;10.98;9.32;;;21.50;64.50;;;;;;6065113;28;90402;-70
2023/03/18 14:52:54;;;;;;;10.98;9.55;;;21.50;64.70;;;;;;6070039;28;88003;-69
2023/03/18 14:55:58;;;;;;;11.05;9.07;;;21.40;63.40;;;;;;6061953;28;88200;-69
2023/03/18 14:59:02;;;;;;;10.07;8.45;;;21.40;63.70;;;;;;6060996;28;89627;-70
2023/03/18 15:02:09;;;;;;;13.27;8.88;;;21.40;64.20;;;;;;6059732;28;89054;-70
2023/03/18 15:05:15;;;;;;;9.05;8.00;;;21.40;64.90;;;;;;6074441;28;89128;-68
2023/03/18 15:08:20;;;;;;;10.07;7.63;;;21.50;65.40;;;;;;6061089;28;89414;-68
2023/03/18 15:11:23;;;;;;;9.93;6.90;;;21.50;66.00;;;;;;6058955;28;88277;-69
2023/03/18 15:14:30;;;;;;;9.68;6.63;;;21.50;66.20;;;;;;6066551;28;90556;-69
2023/03/18 15:17:32;;;;;;;9.70;6.25;;;21.50;66.70;;;;;;6064670;28;89426;-69
2023/03/18 15:20:35;;;;;;;7.30;5.65;;;21.60;66.90;;;;;;6058721;28;90117;-69
2023/03/18 15:23:41;;;;;;;10.63;6.05;;;21.60;67.30;;;;;;6062757;28;89081;-69
2023/03/18 15:26:43;;;;;;;8.07;5.88;;;21.60;68.40;;;;;;6067627;28;89005;-70
2023/03/18 15:29:51;;;;;;;7.90;5.65;;;21.60;67.60;;;;;;6078195;28;87996;-69
2023/03/18 15:33:02;;;;;;;8.40;5.88;;;21.60;67.20;;;;;;6067536;28;89131;-70
2023/03/18 15:36:07;;;;;;;7.07;5.80;;;21.70;67.10;;;;;;6056174;28;89165;-70
2023/03/18 15:39:29;;;;;;;6.65;5.90;;;21.70;66.90;;;;;;6058611;28;89113;-69
2023/03/18 15:42:32;;;;;;;8.50;5.55;;;21.70;66.90;;;;;;6061282;28;88311;-70
2023/03/18 15:45:39;;;;;;;7.78;5.45;;;21.70;66.90;;;;;;6059907;28;89130;-70
2023/03/18 15:48:46;;;;;;;8.00;5.15;;;21.60;66.80;;;;;;6059402;28;89098;-70
2023/03/18 15:51:48;;;;;;;8.02;5.25;;;21.70;66.90;;;;;;6061656;28;89967;-69
2023/03/18 15:54:51;;;;;;;7.60;5.07;;;21.70;66.90;;;;;;6062344;28;89107;-69
2023/03/18 15:57:54;;;;;;;7.00;5.18;;;21.70;66.80;;;;;;6051372;28;87959;-70
2023/03/18 16:00:57;;;;;;;6.38;4.88;;;21.70;66.70;;;;;;6084958;28;89046;-69